CheckWX is a tool to help pilots better visualize weather data.  It is not intended as a substitute for an official pre-flight weather briefing.

05:03:06 UTC

KSYM TAF
Morehead-Rowan County Clyde A Thomas Regional Airport
Morehead, Kentucky, USA
KSYM 252327Z 2600/2624 08007G12KT P6SM BKN060 FM260400 VRB05KT P6SM SCT050 BKN100 FM260900 VRB05KT P6SM SCT050 OVC250 FM261300 VRB05KT P6SM VCSH SCT021 OVC027 FM261400 VRB05KT 5SM -SHRA SCT015 OVC025 FM261600 VRB05KT 4SM SHRA BR SCT007 OVC016

Aug-26@
00:00 UTC

Aug-26 @ 00:00 UTC

Aug-26@
04:00 UTC

Aug-26 @ 04:00 UTC

KSYM 252327Z 2600/2624 08007G12KT P6SM BKN060

Expired

Wind
  • 080° at 7 KTS
  • {Gusting to 12 KTS
Cloud Levels
  • Broken at 6,000' AGL

Aug-26@
04:00 UTC

Aug-26 @ 04:00 UTC

Aug-26@
09:00 UTC

Aug-26 @ 09:00 UTC

FM260400 VRB05KT P6SM SCT050 BKN100

From

From Standard forecast or significant change

Wind
  • Variable at 5 KTS
Cloud Levels
  • Scattered at 5,000' AGL
  • Broken at 10,000' AGL

Aug-26@
09:00 UTC

Aug-26 @ 09:00 UTC

Aug-26@
13:00 UTC

Aug-26 @ 13:00 UTC

FM260900 VRB05KT P6SM SCT050 OVC250

From

From Standard forecast or significant change

Wind
  • Variable at 5 KTS
Cloud Levels
  • Scattered at 5,000' AGL
  • Overcast at 25,000' AGL

Aug-26@
13:00 UTC

Aug-26 @ 13:00 UTC

Aug-26@
14:00 UTC

Aug-26 @ 14:00 UTC

FM261300 VRB05KT P6SM VCSH SCT021 OVC027

From

From Standard forecast or significant change

Wind
  • Variable at 5 KTS
Cloud Levels
  • Scattered at 2,100' AGL
  • Overcast at 2,700' AGL

Aug-26@
14:00 UTC

Aug-26 @ 14:00 UTC

Aug-26@
16:00 UTC

Aug-26 @ 16:00 UTC

FM261400 VRB05KT 5SM -SHRA SCT015 OVC025

From

From Standard forecast or significant change

Wind
  • Variable at 5 KTS
Conditions
Light Rain
Cloud Levels
  • Scattered at 1,500' AGL
  • Overcast at 2,500' AGL

Aug-26@
16:00 UTC

Aug-26 @ 16:00 UTC

Aug-27@
00:00 UTC

Aug-27 @ 00:00 UTC

FM261600 VRB05KT 4SM SHRA BR SCT007 OVC016

From

From Standard forecast or significant change

Wind
  • Variable at 5 KTS
Conditions
Rain, Mist
Cloud Levels
  • Scattered at 700' AGL
  • Overcast at 1,600' AGL